sensor_id;sensor_type;location;lat;lon;timestamp;pressure;altitude;pressure_sealevel;temperature;humidity
84356;BME280;74539;43.518;1.504;2024-03-07T00:01:55;99868.22;;;20.27;38.89
84356;BME280;74539;43.518;1.504;2024-03-07T00:04:21;99862.31;;;20.25;38.50
84356;BME280;74539;43.518;1.504;2024-03-07T00:06:46;99866.63;;;20.26;38.78
84356;BME280;74539;43.518;1.504;2024-03-07T00:09:14;99859.09;;;20.23;39.34
84356;BME280;74539;43.518;1.504;2024-03-07T00:11:40;99855.91;;;20.21;38.88
84356;BME280;74539;43.518;1.504;2024-03-07T00:14:06;99851.09;;;20.18;39.16
84356;BME280;74539;43.518;1.504;2024-03-07T00:16:35;99847.59;;;20.18;38.37
84356;BME280;74539;43.518;1.504;2024-03-07T00:19:01;99850.63;;;20.16;38.75
84356;BME280;74539;43.518;1.504;2024-03-07T00:21:26;99849.00;;;20.15;39.07
84356;BME280;74539;43.518;1.504;2024-03-07T00:23:52;99839.91;;;20.11;38.99
84356;BME280;74539;43.518;1.504;2024-03-07T00:26:19;99835.28;;;20.11;38.67
84356;BME280;74539;43.518;1.504;2024-03-07T00:28:45;99837.53;;;20.09;38.38
84356;BME280;74539;43.518;1.504;2024-03-07T00:31:10;99845.97;;;20.08;38.86
84356;BME280;74539;43.518;1.504;2024-03-07T00:33:36;99845.34;;;20.11;38.44
84356;BME280;74539;43.518;1.504;2024-03-07T00:36:02;99840.53;;;20.08;38.31
84356;BME280;74539;43.518;1.504;2024-03-07T00:38:28;99839.41;;;20.09;38.69
84356;BME280;74539;43.518;1.504;2024-03-07T00:40:53;99836.22;;;20.07;38.88
84356;BME280;74539;43.518;1.504;2024-03-07T00:43:19;99827.31;;;20.06;38.32
84356;BME280;74539;43.518;1.504;2024-03-07T00:45:45;99831.44;;;20.04;38.58
84356;BME280;74539;43.518;1.504;2024-03-07T00:48:15;99829.50;;;20.04;38.70
84356;BME280;74539;43.518;1.504;2024-03-07T00:50:41;99810.19;;;19.97;38.73
84356;BME280;74539;43.518;1.504;2024-03-07T00:53:08;99815.28;;;19.99;39.16
84356;BME280;74539;43.518;1.504;2024-03-07T00:55:34;99808.13;;;19.94;38.77
84356;BME280;74539;43.518;1.504;2024-03-07T00:57:59;99805.69;;;19.93;38.48
84356;BME280;74539;43.518;1.504;2024-03-07T01:00:25;99811.28;;;19.96;39.03
84356;BME280;74539;43.518;1.504;2024-03-07T01:02:51;99806.19;;;19.95;38.11
84356;BME280;74539;43.518;1.504;2024-03-07T01:05:19;99802.69;;;19.94;38.25
84356;BME280;74539;43.518;1.504;2024-03-07T01:07:45;99801.88;;;19.94;38.42
84356;BME280;74539;43.518;1.504;2024-03-07T01:10:14;99797.91;;;19.91;39.29
84356;BME280;74539;43.518;1.504;2024-03-07T01:12:40;99795.47;;;19.89;37.92
84356;BME280;74539;43.518;1.504;2024-03-07T01:15:08;99782.25;;;19.88;38.08
84356;BME280;74539;43.518;1.504;2024-03-07T01:17:36;99774.41;;;19.86;38.67
84356;BME280;74539;43.518;1.504;2024-03-07T01:20:02;99763.41;;;19.83;38.45
84356;BME280;74539;43.518;1.504;2024-03-07T01:22:28;99772.16;;;19.80;38.62
84356;BME280;74539;43.518;1.504;2024-03-07T01:24:54;99777.25;;;19.81;38.19
84356;BME280;74539;43.518;1.504;2024-03-07T01:27:20;99771.03;;;19.81;38.41
84356;BME280;74539;43.518;1.504;2024-03-07T01:29:45;99764.97;;;19.75;39.06
84356;BME280;74539;43.518;1.504;2024-03-07T01:32:11;99771.66;;;19.78;39.11
84356;BME280;74539;43.518;1.504;2024-03-07T01:34:37;99755.88;;;19.71;38.94
84356;BME280;74539;43.518;1.504;2024-03-07T01:37:02;99759.53;;;19.75;38.08
84356;BME280;74539;43.518;1.504;2024-03-07T01:39:28;99757.44;;;19.72;38.88
84356;BME280;74539;43.518;1.504;2024-03-07T01:41:54;99747.22;;;19.69;38.55
84356;BME280;74539;43.518;1.504;2024-03-07T01:44:20;99751.06;;;19.68;39.24
84356;BME280;74539;43.518;1.504;2024-03-07T01:46:47;99745.66;;;19.68;38.75
84356;BME280;74539;43.518;1.504;2024-03-07T01:49:16;99743.72;;;19.68;39.34
84356;BME280;74539;43.518;1.504;2024-03-07T01:51:41;99743.72;;;19.68;39.37
84356;BME280;74539;43.518;1.504;2024-03-07T01:54:09;99734.00;;;19.67;38.87
84356;BME280;74539;43.518;1.504;2024-03-07T01:56:36;99733.81;;;19.64;38.57
84356;BME280;74539;43.518;1.504;2024-03-07T01:59:03;99730.00;;;19.65;38.24
84356;BME280;74539;43.518;1.504;2024-03-07T02:01:30;99730.59;;;19.62;39.09
84356;BME280;74539;43.518;1.504;2024-03-07T02:03:57;99718.19;;;19.61;38.86
84356;BME280;74539;43.518;1.504;2024-03-07T02:06:23;99719.75;;;19.62;38.69
84356;BME280;74539;43.518;1.504;2024-03-07T02:08:49;99711.13;;;19.60;38.67
84356;BME280;74539;43.518;1.504;2024-03-07T02:11:14;99703.16;;;19.55;38.45
84356;BME280;74539;43.518;1.504;2024-03-07T02:13:40;99702.19;;;19.51;38.36
84356;BME280;74539;43.518;1.504;2024-03-07T02:16:06;99699.97;;;19.53;38.46
84356;BME280;74539;43.518;1.504;2024-03-07T02:18:34;99701.56;;;19.54;38.89
84356;BME280;74539;43.518;1.504;2024-03-07T02:21:00;99689.75;;;19.50;38.12
84356;BME280;74539;43.518;1.504;2024-03-07T02:23:26;99692.97;;;19.52;38.80
84356;BME280;74539;43.518;1.504;2024-03-07T02:25:53;99689.25;;;19.48;38.67
84356;BME280;74539;43.518;1.504;2024-03-07T02:28:18;99685.59;;;19.43;38.94
84356;BME280;74539;43.518;1.504;2024-03-07T02:30:44;99683.38;;;19.45;38.06
84356;BME280;74539;43.518;1.504;2024-03-07T02:33:11;99681.59;;;19.41;38.87
84356;BME280;74539;43.518;1.504;2024-03-07T02:35:37;99676.66;;;19.43;38.18
84356;BME280;74539;43.518;1.504;2024-03-07T02:38:04;99660.41;;;19.43;38.70
84356;BME280;74539;43.518;1.504;2024-03-07T02:40:31;99651.63;;;19.37;38.57
84356;BME280;74539;43.518;1.504;2024-03-07T02:42:57;99643.50;;;19.37;38.19
84356;BME280;74539;43.518;1.504;2024-03-07T02:45:23;99650.00;;;19.36;39.31
84356;BME280;74539;43.518;1.504;2024-03-07T02:47:49;99648.13;;;19.37;38.69
84356;BME280;74539;43.518;1.504;2024-03-07T02:50:14;99644.13;;;19.34;38.59
84356;BME280;74539;43.518;1.504;2024-03-07T02:52:40;99630.06;;;19.32;38.35
84356;BME280;74539;43.518;1.504;2024-03-07T02:55:06;99638.69;;;19.34;39.48
84356;BME280;74539;43.518;1.504;2024-03-07T02:57:36;99633.91;;;19.31;38.25
84356;BME280;74539;43.518;1.504;2024-03-07T03:00:02;99632.78;;;19.32;38.57
84356;BME280;74539;43.518;1.504;2024-03-07T03:02:28;99631.81;;;19.28;38.20
84356;BME280;74539;43.518;1.504;2024-03-07T03:04:54;99629.91;;;19.29;39.06
84356;BME280;74539;43.518;1.504;2024-03-07T03:07:20;99628.31;;;19.28;39.45
84356;BME280;74539;43.518;1.504;2024-03-07T03:09:46;99615.72;;;19.23;39.06
84356;BME280;74539;43.518;1.504;2024-03-07T03:12:12;99614.13;;;19.22;38.62
84356;BME280;74539;43.518;1.504;2024-03-07T03:14:38;99606.78;;;19.22;38.36
84356;BME280;74539;43.518;1.504;2024-03-07T03:17:05;99603.59;;;19.20;38.37
84356;BME280;74539;43.518;1.504;2024-03-07T03:19:34;99599.28;;;19.19;39.01
84356;BME280;74539;43.518;1.504;2024-03-07T03:22:01;99598.97;;;19.21;38.82
84356;BME280;74539;43.518;1.504;2024-03-07T03:24:27;99594.66;;;19.20;38.65
84356;BME280;74539;43.518;1.504;2024-03-07T03:26:52;99588.13;;;19.21;38.82
84356;BME280;74539;43.518;1.504;2024-03-07T03:29:18;99581.13;;;19.20;38.98
84356;BME280;74539;43.518;1.504;2024-03-07T03:31:43;99578.25;;;19.16;38.17
84356;BME280;74539;43.518;1.504;2024-03-07T03:34:09;99568.84;;;19.14;38.55
84356;BME280;74539;43.518;1.504;2024-03-07T03:36:35;99566.47;;;19.12;38.99
84356;BME280;74539;43.518;1.504;2024-03-07T03:39:00;99568.06;;;19.13;38.98
84356;BME280;74539;43.518;1.504;2024-03-07T03:41:26;99559.75;;;19.10;37.85
84356;BME280;74539;43.518;1.504;2024-03-07T03:43:52;99566.91;;;19.06;38.36
84356;BME280;74539;43.518;1.504;2024-03-07T03:46:18;99584.13;;;19.10;38.44
84356;BME280;74539;43.518;1.504;2024-03-07T03:48:44;99568.50;;;19.07;38.09
84356;BME280;74539;43.518;1.504;2024-03-07T03:51:10;99576.31;;;19.08;38.43
84356;BME280;74539;43.518;1.504;2024-03-07T03:53:36;99575.50;;;19.08;38.63
84356;BME280;74539;43.518;1.504;2024-03-07T03:56:02;99562.44;;;19.01;39.17
84356;BME280;74539;43.518;1.504;2024-03-07T03:58:30;99572.31;;;19.06;38.22
84356;BME280;74539;43.518;1.504;2024-03-07T04:00:56;99552.88;;;19.04;37.87
84356;BME280;74539;43.518;1.504;2024-03-07T04:03:24;99553.50;;;19.01;38.11
84356;BME280;74539;43.518;1.504;2024-03-07T04:05:49;99557.63;;;18.98;38.32
84356;BME280;74539;43.518;1.504;2024-03-07T04:08:15;99557.94;;;18.96;38.83
84356;BME280;74539;43.518;1.504;2024-03-07T04:10:41;99556.84;;;18.97;38.87
84356;BME280;74539;43.518;1.504;2024-03-07T04:13:06;99562.25;;;18.97;37.55
84356;BME280;74539;43.518;1.504;2024-03-07T04:15:33;99556.97;;;18.92;37.58
84356;BME280;74539;43.518;1.504;2024-03-07T04:17:59;99547.72;;;18.93;39.12
84356;BME280;74539;43.518;1.504;2024-03-07T04:20:24;99558.56;;;18.93;37.55
84356;BME280;74539;43.518;1.504;2024-03-07T04:22:50;99551.84;;;18.91;38.20
84356;BME280;74539;43.518;1.504;2024-03-07T04:25:16;99547.28;;;18.91;38.36
84356;BME280;74539;43.518;1.504;2024-03-07T04:27:42;99544.56;;;18.91;38.77
84356;BME280;74539;43.518;1.504;2024-03-07T04:30:08;99539.78;;;18.88;38.19
84356;BME280;74539;43.518;1.504;2024-03-07T04:32:38;99541.34;;;18.89;38.20
84356;BME280;74539;43.518;1.504;2024-03-07T04:35:06;99537.06;;;18.88;38.45
84356;BME280;74539;43.518;1.504;2024-03-07T04:37:38;99538.16;;;18.87;38.15
84356;BME280;74539;43.518;1.504;2024-03-07T04:40:09;99541.97;;;18.86;38.07
84356;BME280;74539;43.518;1.504;2024-03-07T04:42:44;99538.78;;;18.84;38.61
84356;BME280;74539;43.518;1.504;2024-03-07T04:45:12;99536.56;;;18.86;38.72
84356;BME280;74539;43.518;1.504;2024-03-07T04:47:44;99536.06;;;18.84;39.18
84356;BME280;74539;43.518;1.504;2024-03-07T04:50:10;99531.00;;;18.83;38.71
84356;BME280;74539;43.518;1.504;2024-03-07T04:52:39;99525.41;;;18.79;37.76
84356;BME280;74539;43.518;1.504;2024-03-07T04:55:06;99534.63;;;18.78;38.32
84356;BME280;74539;43.518;1.504;2024-03-07T04:57:38;99524.13;;;18.76;39.09
84356;BME280;74539;43.518;1.504;2024-03-07T05:00:09;99514.09;;;18.77;37.88
84356;BME280;74539;43.518;1.504;2024-03-07T05:02:46;99517.91;;;18.76;38.00
84356;BME280;74539;43.518;1.504;2024-03-07T05:05:12;99507.72;;;18.73;38.55
84356;BME280;74539;43.518;1.504;2024-03-07T05:07:39;99496.66;;;18.69;38.18
84356;BME280;74539;43.518;1.504;2024-03-07T05:10:06;99508.78;;;18.72;37.89
84356;BME280;74539;43.518;1.504;2024-03-07T05:12:32;99497.16;;;18.71;38.05
84356;BME280;74539;43.518;1.504;2024-03-07T05:14:58;99493.78;;;18.66;37.98
84356;BME280;74539;43.518;1.504;2024-03-07T05:17:24;99493.78;;;18.66;38.28
84356;BME280;74539;43.518;1.504;2024-03-07T05:19:50;99487.88;;;18.64;38.05
84356;BME280;74539;43.518;1.504;2024-03-07T05:22:15;99484.72;;;18.62;38.89
84356;BME280;74539;43.518;1.504;2024-03-07T05:24:44;99473.53;;;18.54;38.14
84356;BME280;74539;43.518;1.504;2024-03-07T05:27:10;99495.19;;;18.63;38.02
84356;BME280;74539;43.518;1.504;2024-03-07T05:29:37;99491.22;;;18.61;38.03
84356;BME280;74539;43.518;1.504;2024-03-07T05:32:22;99498.69;;;18.64;38.80
84356;BME280;74539;43.518;1.504;2024-03-07T05:34:48;99495.03;;;18.60;38.03
84356;BME280;74539;43.518;1.504;2024-03-07T05:37:14;99491.03;;;18.57;38.92
84356;BME280;74539;43.518;1.504;2024-03-07T05:39:40;99492.66;;;18.58;38.20
84356;BME280;74539;43.518;1.504;2024-03-07T05:42:06;99484.84;;;18.57;38.78
84356;BME280;74539;43.518;1.504;2024-03-07T05:44:33;99491.84;;;18.58;38.29
84356;BME280;74539;43.518;1.504;2024-03-07T05:46:58;99488.66;;;18.56;38.75
84356;BME280;74539;43.518;1.504;2024-03-07T05:49:24;99494.06;;;18.56;38.50
84356;BME280;74539;43.518;1.504;2024-03-07T05:51:50;99491.50;;;18.50;37.92
84356;BME280;74539;43.518;1.504;2024-03-07T05:54:15;99499.78;;;18.54;38.49
84356;BME280;74539;43.518;1.504;2024-03-07T05:56:41;99492.28;;;18.51;38.54
84356;BME280;74539;43.518;1.504;2024-03-07T05:59:07;99483.72;;;18.49;38.83
84356;BME280;74539;43.518;1.504;2024-03-07T06:01:38;99493.06;;;18.51;37.86
84356;BME280;74539;43.518;1.504;2024-03-07T06:04:06;99484.31;;;18.46;38.16
84356;BME280;74539;43.518;1.504;2024-03-07T06:06:33;99489.41;;;18.47;38.19
84356;BME280;74539;43.518;1.504;2024-03-07T06:09:03;99492.63;;;18.49;38.60
84356;BME280;74539;43.518;1.504;2024-03-07T06:11:36;99498.31;;;18.48;38.31
84356;BME280;74539;43.518;1.504;2024-03-07T06:14:06;99490.53;;;18.46;38.54
84356;BME280;74539;43.518;1.504;2024-03-07T06:16:37;99477.56;;;18.35;38.64
84356;BME280;74539;43.518;1.504;2024-03-07T06:19:04;99489.84;;;18.41;38.89
84356;BME280;74539;43.518;1.504;2024-03-07T06:21:33;99489.53;;;18.42;39.27
84356;BME280;74539;43.518;1.504;2024-03-07T06:24:00;99486.38;;;18.40;38.30
84356;BME280;74539;43.518;1.504;2024-03-07T06:26:36;99483.34;;;18.42;38.01
84356;BME280;74539;43.518;1.504;2024-03-07T06:29:05;99490.34;;;18.43;39.17
84356;BME280;74539;43.518;1.504;2024-03-07T06:31:32;99486.84;;;18.42;38.30
84356;BME280;74539;43.518;1.504;2024-03-07T06:33:58;99492.25;;;18.42;38.23
84356;BME280;74539;43.518;1.504;2024-03-07T06:36:24;99489.06;;;18.40;38.88
84356;BME280;74539;43.518;1.504;2024-03-07T06:38:53;99502.94;;;18.47;37.55
84356;BME280;74539;43.518;1.504;2024-03-07T06:41:19;99498.31;;;18.48;37.91
84356;BME280;74539;43.518;1.504;2024-03-07T06:43:46;99495.31;;;18.49;38.90
84356;BME280;74539;43.518;1.504;2024-03-07T06:46:12;99492.91;;;18.48;38.08
84356;BME280;74539;43.518;1.504;2024-03-07T06:48:41;99496.91;;;18.50;38.52
84356;BME280;74539;43.518;1.504;2024-03-07T06:51:07;99490.88;;;18.53;37.62
84356;BME280;74539;43.518;1.504;2024-03-07T06:53:32;99493.91;;;18.52;37.59
84356;BME280;74539;43.518;1.504;2024-03-07T06:55:58;99495.78;;;18.51;39.46
84356;BME280;74539;43.518;1.504;2024-03-07T06:58:24;99489.91;;;18.49;39.20
84356;BME280;74539;43.518;1.504;2024-03-07T07:00:52;99493.91;;;18.52;37.53
84356;BME280;74539;43.518;1.504;2024-03-07T07:03:22;99476.84;;;18.51;38.78
84356;BME280;74539;43.518;1.504;2024-03-07T07:05:49;99479.75;;;18.55;39.00
84356;BME280;74539;43.518;1.504;2024-03-07T07:08:15;99483.25;;;18.56;37.99
84356;BME280;74539;43.518;1.504;2024-03-07T07:10:41;99472.28;;;18.61;38.10
84356;BME280;74539;43.518;1.504;2024-03-07T07:13:08;99475.50;;;18.71;38.40
84356;BME280;74539;43.518;1.504;2024-03-07T07:15:34;99485.59;;;18.80;38.70
84356;BME280;74539;43.518;1.504;2024-03-07T07:18:02;99491.69;;;18.85;38.18
84356;BME280;74539;43.518;1.504;2024-03-07T07:20:28;99486.59;;;18.92;38.97
84356;BME280;74539;43.518;1.504;2024-03-07T07:22:54;99492.97;;;18.96;38.72
84356;BME280;74539;43.518;1.504;2024-03-07T07:25:22;99501.91;;;19.06;38.47
84356;BME280;74539;43.518;1.504;2024-03-07T07:27:50;99504.47;;;19.11;38.52
84356;BME280;74539;43.518;1.504;2024-03-07T07:30:22;99503.22;;;19.17;37.22
84356;BME280;74539;43.518;1.504;2024-03-07T07:32:49;99496.72;;;19.27;37.75
84356;BME280;74539;43.518;1.504;2024-03-07T07:35:15;99491.44;;;19.30;37.79
84356;BME280;74539;43.518;1.504;2024-03-07T07:37:46;99490.19;;;19.36;37.17
84356;BME280;74539;43.518;1.504;2024-03-07T07:40:15;99475.19;;;19.30;38.06
84356;BME280;74539;43.518;1.504;2024-03-07T07:42:47;99486.84;;;19.48;37.91
84356;BME280;74539;43.518;1.504;2024-03-07T07:45:14;99480.00;;;19.51;37.91
84356;BME280;74539;43.518;1.504;2024-03-07T07:47:42;99478.28;;;19.55;37.15
84356;BME280;74539;43.518;1.504;2024-03-07T07:50:13;99483.50;;;19.60;37.64
84356;BME280;74539;43.518;1.504;2024-03-07T07:52:49;99480.84;;;19.68;37.10
84356;BME280;74539;43.518;1.504;2024-03-07T07:55:16;99481.78;;;19.73;37.32
84356;BME280;74539;43.518;1.504;2024-03-07T07:57:43;99478.28;;;19.81;38.11
84356;BME280;74539;43.518;1.504;2024-03-07T08:02:37;99465.50;;;19.90;37.70
84356;BME280;74539;43.518;1.504;2024-03-07T08:05:03;99480.66;;;20.00;36.98
84356;BME280;74539;43.518;1.504;2024-03-07T08:07:31;99473.94;;;20.06;37.36
84356;BME280;74539;43.518;1.504;2024-03-07T08:09:56;99472.19;;;20.10;37.07
84356;BME280;74539;43.518;1.504;2024-03-07T08:12:22;99473.63;;;20.16;37.17
84356;BME280;74539;43.518;1.504;2024-03-07T08:14:48;99469.63;;;20.22;36.28
84356;BME280;74539;43.518;1.504;2024-03-07T08:17:14;99467.97;;;20.30;36.68
84356;BME280;74539;43.518;1.504;2024-03-07T08:19:40;99457.31;;;20.33;36.52
84356;BME280;74539;43.518;1.504;2024-03-07T08:22:06;99456.00;;;20.40;36.80
84356;BME280;74539;43.518;1.504;2024-03-07T08:24:31;99453.75;;;20.42;36.91
84356;BME280;74539;43.518;1.504;2024-03-07T08:26:57;99444.94;;;20.45;36.53
84356;BME280;74539;43.518;1.504;2024-03-07T08:29:23;99437.78;;;20.49;36.00
84356;BME280;74539;43.518;1.504;2024-03-07T08:31:49;99436.63;;;20.58;36.25
84356;BME280;74539;43.518;1.504;2024-03-07T08:34:15;99442.06;;;20.58;36.53
84356;BME280;74539;43.518;1.504;2024-03-07T08:36:40;99442.34;;;20.66;36.52
84356;BME280;74539;43.518;1.504;2024-03-07T08:39:06;99437.69;;;20.66;36.13
84356;BME280;74539;43.518;1.504;2024-03-07T08:41:36;99440.25;;;20.71;35.63
84356;BME280;74539;43.518;1.504;2024-03-07T08:44:06;99434.28;;;20.78;36.21
84356;BME280;74539;43.518;1.504;2024-03-07T08:46:32;99435.69;;;20.84;35.74
84356;BME280;74539;43.518;1.504;2024-03-07T08:48:58;99426.09;;;20.87;35.74
84356;BME280;74539;43.518;1.504;2024-03-07T08:51:24;99418.69;;;20.96;35.79
84356;BME280;74539;43.518;1.504;2024-03-07T08:53:50;99425.53;;;21.02;35.63
84356;BME280;74539;43.518;1.504;2024-03-07T08:56:15;99418.78;;;21.08;35.78
84356;BME280;74539;43.518;1.504;2024-03-07T08:58:41;99414.75;;;21.14;35.72
84356;BME280;74539;43.518;1.504;2024-03-07T09:01:09;99413.41;;;21.20;35.72
84356;BME280;74539;43.518;1.504;2024-03-07T09:03:34;99400.44;;;21.26;35.20
84356;BME280;74539;43.518;1.504;2024-03-07T09:06:00;99393.66;;;21.32;35.56
84356;BME280;74539;43.518;1.504;2024-03-07T09:08:25;99391.28;;;21.31;35.88
84356;BME280;74539;43.518;1.504;2024-03-07T09:10:52;99396.22;;;21.37;36.03
84356;BME280;74539;43.518;1.504;2024-03-07T09:13:21;99393.63;;;21.41;35.66
84356;BME280;74539;43.518;1.504;2024-03-07T09:15:47;99402.69;;;21.45;34.76
84356;BME280;74539;43.518;1.504;2024-03-07T09:18:12;99400.91;;;21.49;34.56
84356;BME280;74539;43.518;1.504;2024-03-07T09:20:38;99388.25;;;21.53;35.13
84356;BME280;74539;43.518;1.504;2024-03-07T09:23:04;99385.44;;;21.62;34.75
84356;BME280;74539;43.518;1.504;2024-03-07T09:25:29;99388.97;;;21.62;35.20
84356;BME280;74539;43.518;1.504;2024-03-07T09:27:59;99389.53;;;21.68;34.93
84356;BME280;74539;43.518;1.504;2024-03-07T09:30:26;99374.97;;;21.72;35.57
84356;BME280;74539;43.518;1.504;2024-03-07T09:32:55;99384.94;;;21.81;34.63
84356;BME280;74539;43.518;1.504;2024-03-07T09:35:21;99368.41;;;21.86;34.73
84356;BME280;74539;43.518;1.504;2024-03-07T09:37:47;99381.81;;;21.91;34.82
84356;BME280;74539;43.518;1.504;2024-03-07T09:40:13;99380.44;;;21.97;34.33
84356;BME280;74539;43.518;1.504;2024-03-07T09:42:44;99382.16;;;22.02;34.75
84356;BME280;74539;43.518;1.504;2024-03-07T09:45:14;99381.16;;;22.06;34.52
84356;BME280;74539;43.518;1.504;2024-03-07T09:47:44;99370.03;;;22.11;35.02
84356;BME280;74539;43.518;1.504;2024-03-07T09:50:10;99372.56;;;22.16;35.30
84356;BME280;74539;43.518;1.504;2024-03-07T09:52:36;99371.22;;;22.23;34.31
84356;BME280;74539;43.518;1.504;2024-03-07T09:55:03;99351.69;;;22.21;34.88
84356;BME280;74539;43.518;1.504;2024-03-07T09:57:31;99369.16;;;22.32;34.91
84356;BME280;74539;43.518;1.504;2024-03-07T09:59:59;99360.78;;;22.37;34.24
84356;BME280;74539;43.518;1.504;2024-03-07T10:02:29;99355.91;;;22.43;34.22
84356;BME280;74539;43.518;1.504;2024-03-07T10:04:57;99349.31;;;22.44;34.86
84356;BME280;74539;43.518;1.504;2024-03-07T10:07:23;99365.09;;;22.50;34.16
84356;BME280;74539;43.518;1.504;2024-03-07T10:09:50;99370.41;;;22.59;34.27
84356;BME280;74539;43.518;1.504;2024-03-07T10:12:18;99375.63;;;22.64;35.05
84356;BME280;74539;43.518;1.504;2024-03-07T10:14:51;99364.84;;;22.68;34.77
84356;BME280;74539;43.518;1.504;2024-03-07T10:17:23;99367.34;;;22.73;34.28
84356;BME280;74539;43.518;1.504;2024-03-07T10:19:51;99358.13;;;22.77;34.56
84356;BME280;74539;43.518;1.504;2024-03-07T10:22:18;99360.97;;;22.81;33.79
84356;BME280;74539;43.518;1.504;2024-03-07T10:24:52;99351.41;;;22.87;34.23
84356;BME280;74539;43.518;1.504;2024-03-07T10:27:21;99351.19;;;22.92;33.61
84356;BME280;74539;43.518;1.504;2024-03-07T10:29:47;99349.38;;;22.96;33.55
84356;BME280;74539;43.518;1.504;2024-03-07T10:32:19;99343.25;;;22.99;34.15
84356;BME280;74539;43.518;1.504;2024-03-07T10:34:45;99359.34;;;23.04;33.97
84356;BME280;74539;43.518;1.504;2024-03-07T10:37:12;99348.00;;;23.02;34.31
84356;BME280;74539;43.518;1.504;2024-03-07T10:39:45;99331.88;;;23.09;33.75
84356;BME280;74539;43.518;1.504;2024-03-07T10:42:14;99330.72;;;23.11;34.23
84356;BME280;74539;43.518;1.504;2024-03-07T10:44:45;99332.44;;;23.15;33.96
84356;BME280;74539;43.518;1.504;2024-03-07T10:47:18;99324.34;;;23.19;34.29
84356;BME280;74539;43.518;1.504;2024-03-07T10:53:29;99307.47;;;23.29;34.28
84356;BME280;74539;43.518;1.504;2024-03-07T10:58:05;99316.31;;;23.38;33.91
84356;BME280;74539;43.518;1.504;2024-03-07T11:00:35;99317.91;;;23.39;33.27
84356;BME280;74539;43.518;1.504;2024-03-07T11:03:02;99310.59;;;23.43;33.50
84356;BME280;74539;43.518;1.504;2024-03-07T11:05:33;99313.50;;;23.50;33.42
84356;BME280;74539;43.518;1.504;2024-03-07T11:08:00;99309.75;;;23.55;33.59
84356;BME280;74539;43.518;1.504;2024-03-07T11:10:30;99297.34;;;23.58;33.00
84356;BME280;74539;43.518;1.504;2024-03-07T11:12:57;99307.66;;;23.64;33.50
84356;BME280;74539;43.518;1.504;2024-03-07T11:15:24;99311.63;;;23.67;33.11
84356;BME280;74539;43.518;1.504;2024-03-07T11:17:54;99304.78;;;23.73;33.13
84356;BME280;74539;43.518;1.504;2024-03-07T11:20:33;99302.47;;;23.75;33.56
84356;BME280;74539;43.518;1.504;2024-03-07T11:22:59;99308.91;;;23.83;33.37
84356;BME280;74539;43.518;1.504;2024-03-07T11:25:27;99307.44;;;23.85;33.40
84356;BME280;74539;43.518;1.504;2024-03-07T11:27:57;99299.66;;;23.87;33.30
84356;BME280;74539;43.518;1.504;2024-03-07T11:30:23;99300.66;;;23.95;33.04
84356;BME280;74539;43.518;1.504;2024-03-07T11:32:53;99292.91;;;23.97;32.94
84356;BME280;74539;43.518;1.504;2024-03-07T11:35:20;99279.78;;;24.03;33.28
84356;BME280;74539;43.518;1.504;2024-03-07T11:37:57;99281.00;;;24.05;32.75
84356;BME280;74539;43.518;1.504;2024-03-07T11:42:51;99276.38;;;24.06;32.61
84356;BME280;74539;43.518;1.504;2024-03-07T11:45:18;99279.09;;;24.06;33.01
84356;BME280;74539;43.518;1.504;2024-03-07T11:48:00;99275.91;;;24.04;32.19
84356;BME280;74539;43.518;1.504;2024-03-07T11:50:41;99267.72;;;24.04;32.82
84356;BME280;74539;43.518;1.504;2024-03-07T11:53:08;99250.13;;;24.01;32.19
84356;BME280;74539;43.518;1.504;2024-03-07T11:55:40;99245.03;;;23.99;32.14
84356;BME280;74539;43.518;1.504;2024-03-07T11:58:17;99232.50;;;23.98;32.83
84356;BME280;74539;43.518;1.504;2024-03-07T12:00:47;99228.22;;;23.97;32.65
84356;BME280;74539;43.518;1.504;2024-03-07T12:03:13;99232.09;;;23.96;32.16
84356;BME280;74539;43.518;1.504;2024-03-07T12:05:45;99210.28;;;23.96;32.00
84356;BME280;74539;43.518;1.504;2024-03-07T12:08:12;99212.56;;;23.94;32.59
84356;BME280;74539;43.518;1.504;2024-03-07T12:10:39;99203.91;;;23.92;32.32
84356;BME280;74539;43.518;1.504;2024-03-07T12:13:06;99207.44;;;23.93;32.95
84356;BME280;74539;43.518;1.504;2024-03-07T12:15:33;99199.16;;;23.89;32.25
84356;BME280;74539;43.518;1.504;2024-03-07T12:18:01;99193.72;;;23.89;32.52
84356;BME280;74539;43.518;1.504;2024-03-07T12:20:27;99185.09;;;23.87;32.18
84356;BME280;74539;43.518;1.504;2024-03-07T12:22:59;99189.34;;;23.85;32.48
84356;BME280;74539;43.518;1.504;2024-03-07T12:25:28;99184.22;;;23.83;32.51
84356;BME280;74539;43.518;1.504;2024-03-07T12:28:09;99176.41;;;23.82;32.89
84356;BME280;74539;43.518;1.504;2024-03-07T12:30:55;99185.72;;;23.81;32.47
84356;BME280;74539;43.518;1.504;2024-03-07T12:33:22;99179.47;;;23.80;32.41
84356;BME280;74539;43.518;1.504;2024-03-07T12:35:51;99165.41;;;23.78;32.92
84356;BME280;74539;43.518;1.504;2024-03-07T12:38:20;99157.13;;;23.74;32.63
84356;BME280;74539;43.518;1.504;2024-03-07T12:41:04;99169.97;;;23.74;32.74
84356;BME280;74539;43.518;1.504;2024-03-07T12:43:34;99171.56;;;23.75;32.40
84356;BME280;74539;43.518;1.504;2024-03-07T12:46:00;99170.78;;;23.74;33.21
84356;BME280;74539;43.518;1.504;2024-03-07T12:48:25;99173.88;;;23.73;32.61
84356;BME280;74539;43.518;1.504;2024-03-07T12:50:52;99155.47;;;23.70;32.44
84356;BME280;74539;43.518;1.504;2024-03-07T12:53:24;99180.81;;;23.70;33.03
84356;BME280;74539;43.518;1.504;2024-03-07T12:55:54;99173.41;;;23.71;32.44
84356;BME280;74539;43.518;1.504;2024-03-07T12:58:20;99166.69;;;23.68;33.07
84356;BME280;74539;43.518;1.504;2024-03-07T13:00:54;99162.75;;;23.66;32.66
84356;BME280;74539;43.518;1.504;2024-03-07T13:03:27;99160.00;;;23.66;33.14
84356;BME280;74539;43.518;1.504;2024-03-07T13:05:58;99161.16;;;23.65;33.38
84356;BME280;74539;43.518;1.504;2024-03-07T13:08:27;99144.66;;;23.58;33.28
84356;BME280;74539;43.518;1.504;2024-03-07T13:10:55;99144.81;;;23.65;33.38
84356;BME280;74539;43.518;1.504;2024-03-07T13:13:21;99135.06;;;23.64;33.26